Detall de PIREP

Printer-friendly versionPDF version

[2017/03/12 10:49:00]
Flight IATA:CT3104
Pilot Number:012
Company ICAO:CAT
Aircraft Type:DC3/A
PAX:0
Aircraft Registration:CARGO
Departing Airport: LIEA
Destination Airport: LFMP
Alternate Airport:LEGE
Online: VATSIM
Route:GINOX M601 MUREN G23 VERSO A67 BGR A27 KANIG
Flight Level:F090
No Slew and time accel
No pause
Crash detect
Detect pilot in Cockpit between each 30 and 45 minutes
10:49 Zero fuel Weight: 20226 Lbs, Fuel Weight: 3020 Lbs
10:49 VATSIM:LIEA 121020Z 20010KT 9999 SCT020 14/10 Q1016
10:49 VATSIM:LFMP 121030Z AUTO 32013KT 9999 BKN052 OVC094 17/07 Q1015 TEMPO 32020G30KT
10:50 Parking Brakes off
10:56 Take-off
10:56 Take off Weight: 23218 Lbs
10:56 Wind: 198º @ 010 Knots Heading: 204º
10:56 POS N40º 38´ 14´´ E008º 17´ 38´´
10:56 Gear Up: 102 Knots
11:06 TOC
11:06 Fuel Weight: 2854 Lb
11:11 Wind:290º@014 Knots Heading: 274º Ground Speed: 148 Knots Altitude 9084 ft
11:26 Wind:292º@014 Knots Heading: 274º Ground Speed: 149 Knots Altitude 9002 ft
11:41 Wind:292º@010 Knots Heading: 273º Ground Speed: 152 Knots Altitude 8976 ft
11:56 Wind:299º@011 Knots Heading: 279º Ground Speed: 154 Knots Altitude 8979 ft
12:11 Wind:299º@011 Knots Heading: 280º Ground Speed: 154 Knots Altitude 9045 ft
12:26 Wind:308º@005 Knots Heading: 331º Ground Speed: 159 Knots Altitude 9025 ft
12:41 Wind:289º@021 Knots Heading: 327º Ground Speed: 149 Knots Altitude 9028 ft
12:48 TOD
12:48 Fuel Weight: 1715 Lb
12:56 Wind:287º@018 Knots Heading: 343º Ground Speed: 156 Knots Altitude 5098 ft
13:01 Flaps:1 at 121 Knots
13:01 Gear Down: 113 Knots
13:02 Flaps:2 at 102 Knots
13:03 Flaps:3 at 92 Knots
13:05 Flaps:4 at 90 Knots
13:07 TouchDown:Rate -86 ft/min Speed: 61 Knots
13:08 VATSIM:LFMP 121230Z AUTO 32017KT 290V350 CAVOK 18/08 Q1014 TEMPO 32020G30KT
13:08 Land
13:08 Wind:329º@017 Knots
13:08 Heading: 337º
13:08 Flight Duration: 02:12
13:08 Landing Weight: 21782 Lbs
13:08 POS N42º 44´ 33´´ E002º 52´ 17´´
13:10 Parking brakes on
13:10 Block to Block Duration: 02:20
13:10 Final Fuel: 1536 Lbls
13:10 Spent Fuel: 1483 Lbls
13:10 Flight Length: 318 NM
13:10 TOD Land Length: 40 NM

Exportar CSV

Powered by Drupal - Modified by Danger4k